Ora Direzione Vento Velocita' Vento Media Vento Raffica Max. Temperatura Wind Chill Pioggia Pressione
10:39:00.0251 °(WSW)1.8 Kts1.0 Kts6.4 Kts13.1 °C13.1 °C0.0 mm1032.0 Hpa
10:15:34.0246 °(WSW)2.3 Kts1.6 Kts6.4 Kts13.0 °C13.0 °C0.0 mm1032.0 Hpa
09:57:23.0257 °(WSW)2.5 Kts1.9 Kts6.4 Kts13.0 °C13.0 °C0.0 mm1032.0 Hpa
09:37:15.0214 °(SW)1.9 Kts1.6 Kts6.4 Kts12.9 °C12.9 °C0.0 mm1032.0 Hpa
09:17:13.0253 °(WSW)2.3 Kts1.8 Kts6.4 Kts12.8 °C12.8 °C0.0 mm1031.0 Hpa
08:57:05.0295 °(WNW)1.8 Kts1.8 Kts6.4 Kts12.9 °C12.9 °C0.0 mm1032.0 Hpa
08:36:54.0295 °(WNW)0.0 Kts0.0 Kts6.4 Kts12.8 °C12.8 °C0.0 mm1032.0 Hpa
08:18:53.0295 °(WNW)0.2 Kts0.0 Kts6.4 Kts12.5 °C12.5 °C0.0 mm1032.0 Hpa
07:57:56.0295 °(WNW)1.0 Kts0.6 Kts6.4 Kts12.5 °C12.5 °C0.0 mm1031.0 Hpa
07:37:13.0295 °(WNW)0.6 Kts0.6 Kts6.4 Kts12.4 °C12.4 °C0.0 mm1031.0 Hpa
07:17:09.0294 °(WNW)0.2 Kts0.0 Kts6.4 Kts12.3 °C12.3 °C0.0 mm1031.0 Hpa
06:57:14.0340 °(NNW)1.0 Kts0.0 Kts6.4 Kts12.2 °C12.2 °C0.0 mm1031.0 Hpa
06:37:22.0337 °(NNW)1.0 Kts1.0 Kts6.4 Kts12.2 °C12.2 °C0.0 mm1031.0 Hpa
06:17:21.0337 °(NNW)2.5 Kts2.3 Kts6.4 Kts12.2 °C12.2 °C0.0 mm1031.0 Hpa
05:57:12.0337 °(NNW)1.9 Kts1.0 Kts6.4 Kts12.2 °C12.2 °C0.0 mm1031.0 Hpa
05:37:30.0232 °(SW)1.8 Kts1.4 Kts6.4 Kts12.3 °C12.3 °C0.0 mm1031.0 Hpa
05:17:36.0232 °(SW)1.9 Kts1.6 Kts6.4 Kts12.3 °C12.3 °C0.0 mm1031.0 Hpa
04:57:38.0208 °(SSW)0.0 Kts0.0 Kts6.4 Kts12.2 °C12.2 °C0.0 mm1031.0 Hpa
04:37:36.0208 °(SSW)0.0 Kts0.0 Kts6.4 Kts12.3 °C12.3 °C0.0 mm1031.0 Hpa
04:17:43.0208 °(SSW)0.0 Kts0.0 Kts6.4 Kts12.4 °C12.4 °C0.0 mm1031.0 Hpa